Time;durP1;ratioP1;P1;durP2;ratioP2;P2;SDS_P1;SDS_P2;PMS_P1;PMS_P2;Temp;Humidity;BMP_temperature;BMP_pressure;BME280_temperature;BME280_humidity;BME280_pressure;Samples;Min_cycle;Max_cycle;Signal;HPM_P1;HPM_P2
2023/12/27 00:00:22;;;;;;;11.75;3.85;;;4.30;99.90;;;;;;4995426;28;20588;-49
2023/12/27 00:02:47;;;;;;;18.02;4.78;;;4.40;99.90;;;;;;4997907;28;20034;-50
2023/12/27 00:05:13;;;;;;;17.33;3.53;;;4.30;99.90;;;;;;5003103;28;20025;-50
2023/12/27 00:07:38;;;;;;;18.25;3.33;;;4.30;99.90;;;;;;5003915;28;20107;-50
2023/12/27 00:10:05;;;;;;;14.77;3.45;;;4.30;99.90;;;;;;5009745;28;20117;-50
2023/12/27 00:12:30;;;;;;;13.15;2.92;;;4.20;99.90;;;;;;5005235;28;20132;-48
2023/12/27 00:14:56;;;;;;;13.57;3.22;;;4.20;99.90;;;;;;5003358;28;20615;-49
2023/12/27 00:17:21;;;;;;;14.77;3.20;;;4.10;99.90;;;;;;5009353;28;20368;-51
2023/12/27 00:19:47;;;;;;;33.33;4.35;;;4.00;99.90;;;;;;5007373;28;20030;-51
2023/12/27 00:22:14;;;;;;;14.00;3.70;;;4.00;99.90;;;;;;5011942;28;20018;-52
2023/12/27 00:24:40;;;;;;;22.25;5.30;;;3.90;99.90;;;;;;5011961;28;20021;-50
2023/12/27 00:27:05;;;;;;;17.02;4.22;;;3.80;99.90;;;;;;5012621;28;20034;-51
2023/12/27 00:29:31;;;;;;;16.42;3.22;;;3.80;99.90;;;;;;4999192;28;20074;-48
2023/12/27 00:31:56;;;;;;;21.17;4.63;;;3.80;99.90;;;;;;5003620;28;20037;-49
2023/12/27 00:34:22;;;;;;;22.25;3.45;;;3.70;99.90;;;;;;4990734;28;20030;-50
2023/12/27 00:36:48;;;;;;;10.20;3.08;;;3.70;99.90;;;;;;5011188;28;20109;-51
2023/12/27 00:39:13;;;;;;;19.17;4.35;;;3.60;99.90;;;;;;5011633;28;20081;-53
2023/12/27 00:41:48;;;;;;;18.58;3.38;;;3.60;99.90;;;;;;5043746;23;20046;-85
2023/12/27 00:44:19;;;;;;;15.20;4.13;;;3.60;99.90;;;;;;5016982;28;20158;-85
2023/12/27 00:46:45;;;;;;;23.27;5.05;;;3.60;99.90;;;;;;5013238;28;20125;-84
2023/12/27 00:49:32;;;;;;;10.05;3.78;;;3.60;99.90;;;;;;5012067;28;20128;-85
2023/12/27 00:51:58;;;;;;;17.27;4.18;;;3.50;99.90;;;;;;5009505;28;20034;-84
2023/12/27 00:54:24;;;;;;;30.85;4.68;;;3.50;99.90;;;;;;5015012;28;20048;-85
2023/12/27 00:56:52;;;;;;;22.08;4.03;;;3.50;99.90;;;;;;4967550;28;20078;-84
2023/12/27 00:59:18;;;;;;;22.08;3.72;;;3.50;99.90;;;;;;4988535;28;20038;-85
2023/12/27 01:05:18;;;;;;;25.67;3.88;;;3.40;99.90;;;;;;4976983;28;20086;-84
2023/12/27 01:07:44;;;;;;;20.67;3.85;;;3.40;99.90;;;;;;4989644;28;20034;-85
2023/12/27 01:10:14;;;;;;;21.95;4.03;;;3.40;99.90;;;;;;4993832;28;20113;-85
2023/12/27 01:12:42;;;;;;;19.83;4.00;;;3.40;99.90;;;;;;4992745;28;20034;-85
2023/12/27 01:15:09;;;;;;;20.10;4.30;;;3.40;99.90;;;;;;4991883;28;20038;-85
2023/12/27 01:17:35;;;;;;;14.63;4.75;;;3.40;99.90;;;;;;4990279;28;20038;-84
2023/12/27 01:20:04;;;;;;;20.55;6.05;;;3.40;99.90;;;;;;4990877;28;20018;-85
2023/12/27 01:22:30;;;;;;;20.15;4.78;;;3.50;99.90;;;;;;4990780;28;20042;-84
2023/12/27 01:24:56;;;;;;;16.45;4.43;;;3.50;99.90;;;;;;4986375;28;20038;-85
2023/12/27 01:27:22;;;;;;;19.83;4.55;;;3.40;99.90;;;;;;4981345;28;20022;-85
2023/12/27 01:29:51;;;;;;;19.90;4.57;;;3.50;99.90;;;;;;5013058;28;20086;-85
2023/12/27 01:32:19;;;;;;;11.43;4.45;;;3.50;99.90;;;;;;5008712;28;20053;-86
2023/12/27 01:34:48;;;;;;;23.48;5.35;;;3.50;99.90;;;;;;5011715;28;20396;-85
2023/12/27 01:37:20;;;;;;;17.88;5.32;;;3.50;99.90;;;;;;5026492;28;20029;-86
2023/12/27 01:39:45;;;;;;;16.42;4.03;;;3.50;99.90;;;;;;5024710;28;20048;-85
2023/12/27 01:42:20;;;;;;;30.38;4.80;;;3.50;99.90;;;;;;5011514;28;20064;-85
2023/12/27 01:44:49;;;;;;;14.80;5.00;;;3.50;99.90;;;;;;5012643;28;20386;-86
2023/12/27 01:47:15;;;;;;;21.33;4.70;;;3.50;99.90;;;;;;5014240;28;20041;-85
2023/12/27 01:49:43;;;;;;;16.67;5.03;;;3.60;99.90;;;;;;5012761;28;20037;-86
2023/12/27 01:52:15;;;;;;;17.63;5.05;;;3.70;99.90;;;;;;5010957;28;20569;-85
2023/12/27 01:54:44;;;;;;;21.95;4.78;;;3.70;99.90;;;;;;5022297;28;20482;-84
2023/12/27 01:57:13;;;;;;;15.43;4.18;;;3.70;99.90;;;;;;5003212;28;20386;-84
2023/12/27 01:59:39;;;;;;;11.48;3.92;;;3.70;99.90;;;;;;5015340;28;20049;-86
2023/12/27 02:02:04;;;;;;;29.38;5.32;;;3.80;99.90;;;;;;5009255;28;20486;-84
2023/12/27 02:04:35;;;;;;;25.83;5.15;;;3.70;99.90;;;;;;5014256;28;20021;-85
2023/12/27 02:07:04;;;;;;;15.63;4.57;;;3.70;99.90;;;;;;5006224;28;20179;-85
2023/12/27 02:09:33;;;;;;;29.27;5.00;;;3.80;99.90;;;;;;5009051;28;20099;-85
2023/12/27 02:12:08;;;;;;;13.55;4.63;;;3.70;99.90;;;;;;5002245;28;20073;-86
2023/12/27 02:14:34;;;;;;;15.20;4.72;;;3.70;99.90;;;;;;5003113;28;20030;-85
2023/12/27 02:17:03;;;;;;;19.73;4.47;;;3.70;99.90;;;;;;5008830;28;20045;-84
2023/12/27 02:19:29;;;;;;;17.63;3.88;;;3.60;99.90;;;;;;5010546;28;20444;-85
2023/12/27 02:22:02;;;;;;;18.35;4.47;;;3.60;99.90;;;;;;5009869;28;20056;-85
2023/12/27 02:24:37;;;;;;;18.80;4.40;;;3.50;99.90;;;;;;5020764;28;20021;-85
2023/12/27 02:27:03;;;;;;;17.63;4.25;;;3.50;99.90;;;;;;5010319;28;20179;-85
2023/12/27 02:29:32;;;;;;;21.17;4.35;;;3.60;99.90;;;;;;5025390;28;20036;-84
2023/12/27 02:32:00;;;;;;;25.33;4.57;;;3.70;99.90;;;;;;5006071;28;20034;-86
2023/12/27 02:34:26;;;;;;;13.95;4.75;;;3.80;99.90;;;;;;5012663;28;20029;-85
2023/12/27 02:36:54;;;;;;;15.43;4.10;;;3.90;99.90;;;;;;5024579;28;20857;-85
2023/12/27 02:39:23;;;;;;;22.40;4.40;;;4.00;99.90;;;;;;5038567;28;20647;-85
2023/12/27 02:41:51;;;;;;;22.15;4.45;;;4.00;99.90;;;;;;5006974;28;20034;-86
2023/12/27 02:44:18;;;;;;;16.33;4.75;;;4.00;99.90;;;;;;5009882;28;20022;-85
2023/12/27 02:46:44;;;;;;;22.33;4.28;;;4.00;99.90;;;;;;5006393;28;20026;-85
2023/12/27 02:49:09;;;;;;;20.70;4.43;;;4.00;99.90;;;;;;5011846;28;20037;-84
2023/12/27 02:51:38;;;;;;;22.52;4.18;;;4.00;99.90;;;;;;5022365;28;20053;-85
2023/12/27 02:54:06;;;;;;;23.30;4.10;;;4.10;99.90;;;;;;5008315;28;20505;-84
2023/12/27 02:56:32;;;;;;;15.90;4.20;;;4.10;99.90;;;;;;5012938;28;20033;-85
2023/12/27 02:59:08;;;;;;;14.20;3.60;;;4.10;99.90;;;;;;5009431;28;20550;-85
2023/12/27 03:01:41;;;;;;;12.48;3.42;;;4.10;99.90;;;;;;5021952;28;20112;-85
2023/12/27 03:04:10;;;;;;;;;;;4.20;99.90;;;;;;5007091;28;20501;-85
2023/12/27 03:06:39;;;;;;;12.68;3.63;;;4.20;99.90;;;;;;5008685;28;20598;-85
2023/12/27 03:09:05;;;;;;;17.33;3.15;;;4.20;99.90;;;;;;5007804;28;20494;-85
2023/12/27 03:11:31;;;;;;;18.42;3.88;;;4.30;99.90;;;;;;5005696;28;20083;-85
2023/12/27 03:13:59;;;;;;;19.23;3.08;;;4.30;99.90;;;;;;5011200;28;20095;-85
2023/12/27 03:16:28;;;;;;;16.38;3.88;;;4.20;99.90;;;;;;5008755;28;20034;-83
2023/12/27 03:18:56;;;;;;;13.80;3.42;;;4.20;99.90;;;;;;5010088;28;20501;-85
2023/12/27 03:21:25;;;;;;;17.88;2.97;;;4.20;99.90;;;;;;5028870;28;20032;-86
2023/12/27 03:23:51;;;;;;;10.10;2.47;;;4.20;99.90;;;;;;5008036;28;20022;-85
2023/12/27 03:26:49;;;;;;;14.88;3.75;;;4.20;99.90;;;;;;5016271;28;20028;-85
2023/12/27 03:29:18;;;;;;;15.75;2.78;;;4.30;99.90;;;;;;5003832;28;20117;-86
2023/12/27 03:31:47;;;;;;;21.20;4.13;;;4.30;99.90;;;;;;5017916;28;20032;-86
2023/12/27 03:34:15;;;;;;;13.82;2.45;;;4.40;99.90;;;;;;5012458;28;20462;-85
2023/12/27 03:36:41;;;;;;;10.60;2.47;;;4.40;99.90;;;;;;5011461;28;20030;-85
2023/12/27 03:39:07;;;;;;;6.85;2.17;;;4.40;99.90;;;;;;5010917;28;20045;-85
2023/12/27 03:41:33;;;;;;;19.17;3.38;;;4.30;99.90;;;;;;5011349;28;20026;-85
2023/12/27 03:43:59;;;;;;;14.93;2.90;;;4.30;99.90;;;;;;5012984;28;20490;-86
2023/12/27 03:46:26;;;;;;;13.13;2.88;;;4.20;99.90;;;;;;5013137;28;20033;-86
2023/12/27 03:48:51;;;;;;;11.18;2.00;;;4.20;99.90;;;;;;5011683;28;20034;-85
2023/12/27 03:51:22;;;;;;;16.83;2.58;;;4.20;99.90;;;;;;5011531;28;20398;-85
2023/12/27 03:53:48;;;;;;;19.23;2.58;;;4.10;99.90;;;;;;5007997;28;20037;-85
2023/12/27 03:56:14;;;;;;;18.70;3.67;;;4.10;99.90;;;;;;5012461;28;20033;-86
2023/12/27 03:58:42;;;;;;;20.80;4.38;;;4.10;99.90;;;;;;5009801;28;20030;-85
2023/12/27 04:01:09;;;;;;;8.70;2.33;;;4.20;99.90;;;;;;5009382;28;20519;-85
2023/12/27 04:03:34;;;;;;;11.05;2.67;;;4.20;99.90;;;;;;5014762;23;20148;-52
2023/12/27 04:06:00;;;;;;;9.93;2.80;;;4.20;99.90;;;;;;5014896;28;20074;-52
2023/12/27 04:08:25;;;;;;;10.82;3.03;;;4.20;99.90;;;;;;5009893;28;20030;-52
2023/12/27 04:10:51;;;;;;;12.57;3.03;;;4.30;99.90;;;;;;5009468;28;20030;-50
2023/12/27 04:13:17;;;;;;;23.42;2.83;;;4.30;99.90;;;;;;5000711;28;20026;-54
2023/12/27 04:15:43;;;;;;;15.35;2.63;;;4.30;99.90;;;;;;5004392;28;20030;-52
2023/12/27 04:18:11;;;;;;;11.57;2.65;;;4.40;99.90;;;;;;5008851;28;20448;-52
2023/12/27 04:20:37;;;;;;;10.27;2.85;;;4.40;99.90;;;;;;5002583;28;20026;-55
2023/12/27 04:23:02;;;;;;;11.93;2.72;;;4.40;99.90;;;;;;5010117;28;20468;-52
2023/12/27 04:25:28;;;;;;;10.45;3.17;;;4.50;99.90;;;;;;5011908;28;20034;-52
2023/12/27 04:27:53;;;;;;;14.30;2.97;;;4.50;99.90;;;;;;5009832;28;20030;-50
2023/12/27 04:30:19;;;;;;;12.48;2.72;;;4.50;99.90;;;;;;5006995;28;20036;-52
2023/12/27 04:32:45;;;;;;;14.82;3.33;;;4.50;99.90;;;;;;5000982;28;20034;-50
2023/12/27 04:35:10;;;;;;;9.68;3.05;;;4.50;99.90;;;;;;5004939;28;20568;-54
2023/12/27 04:37:36;;;;;;;16.13;2.65;;;4.60;99.90;;;;;;5005564;28;20038;-54
2023/12/27 04:40:01;;;;;;;9.50;3.08;;;4.60;99.90;;;;;;4981381;28;20034;-52
2023/12/27 04:42:27;;;;;;;9.77;3.03;;;4.60;99.90;;;;;;5016014;28;20026;-55
2023/12/27 04:44:52;;;;;;;14.48;4.25;;;4.60;99.90;;;;;;5011557;28;20133;-53
2023/12/27 04:47:18;;;;;;;6.80;3.60;;;4.60;99.90;;;;;;5005926;28;20073;-53
2023/12/27 04:49:43;;;;;;;12.48;3.35;;;4.60;99.90;;;;;;5007889;28;20034;-52
2023/12/27 04:52:09;;;;;;;16.40;3.92;;;4.60;99.90;;;;;;4998407;28;20030;-52
2023/12/27 04:54:35;;;;;;;8.65;3.15;;;4.60;99.90;;;;;;5003338;28;20121;-54
2023/12/27 04:57:00;;;;;;;17.65;4.18;;;4.60;99.90;;;;;;5005682;28;20038;-52
2023/12/27 04:59:26;;;;;;;15.13;4.63;;;4.60;99.90;;;;;;5006431;28;20081;-51
2023/12/27 05:01:53;;;;;;;21.23;4.63;;;4.60;99.90;;;;;;5008675;28;20022;-54
2023/12/27 05:04:18;;;;;;;10.75;3.97;;;4.60;99.90;;;;;;5004301;28;20030;-52
2023/12/27 05:06:44;;;;;;;21.23;5.85;;;4.60;99.90;;;;;;4996219;28;20056;-52
2023/12/27 05:09:09;;;;;;;10.77;4.30;;;4.60;99.90;;;;;;5005444;28;20034;-52
2023/12/27 05:11:35;;;;;;;13.85;3.85;;;4.70;99.90;;;;;;5004066;28;20037;-52
2023/12/27 05:14:00;;;;;;;13.60;4.80;;;4.70;99.90;;;;;;5007959;28;20042;-53
2023/12/27 05:16:26;;;;;;;19.60;6.18;;;4.80;99.90;;;;;;5008610;28;20133;-51
2023/12/27 05:18:52;;;;;;;13.48;4.97;;;4.80;99.90;;;;;;5002445;28;20023;-54
2023/12/27 05:21:18;;;;;;;21.00;3.90;;;4.80;99.90;;;;;;5002418;28;20026;-53
2023/12/27 05:23:44;;;;;;;18.63;4.43;;;4.90;99.90;;;;;;5003773;28;20041;-51
2023/12/27 05:26:10;;;;;;;13.55;4.20;;;4.90;99.90;;;;;;4998890;28;20030;-50
2023/12/27 05:28:35;;;;;;;11.68;4.60;;;5.00;99.90;;;;;;5008631;28;20053;-52
2023/12/27 05:31:01;;;;;;;10.73;3.97;;;5.10;99.90;;;;;;4990981;28;20026;-53
2023/12/27 05:33:27;;;;;;;10.07;4.05;;;5.10;99.90;;;;;;5006993;28;20029;-52
2023/12/27 05:35:52;;;;;;;12.10;4.40;;;5.10;99.90;;;;;;5004887;28;20033;-53
2023/12/27 05:38:18;;;;;;;12.55;4.63;;;5.00;99.90;;;;;;5001887;28;20071;-52
2023/12/27 05:40:43;;;;;;;11.30;4.40;;;5.10;99.90;;;;;;5006429;28;20026;-52
2023/12/27 05:43:09;;;;;;;16.23;4.75;;;5.10;99.90;;;;;;5005898;28;20033;-52
2023/12/27 05:45:35;;;;;;;14.52;4.43;;;5.10;99.90;;;;;;5012222;28;20491;-52
2023/12/27 05:48:00;;;;;;;17.27;5.50;;;5.20;99.90;;;;;;5009396;28;20037;-52
2023/12/27 05:50:26;;;;;;;13.63;4.60;;;5.20;99.90;;;;;;5002081;28;20508;-53
2023/12/27 05:52:51;;;;;;;13.85;4.20;;;5.30;99.90;;;;;;5007349;28;20030;-52
2023/12/27 05:55:17;;;;;;;14.85;4.30;;;5.30;99.90;;;;;;5004513;28;20034;-53
2023/12/27 05:57:43;;;;;;;14.25;4.07;;;5.40;99.90;;;;;;5011304;28;20034;-52
2023/12/27 06:00:09;;;;;;;11.77;4.97;;;5.40;99.90;;;;;;5009139;28;20104;-53
2023/12/27 06:02:34;;;;;;;21.60;5.30;;;5.40;99.90;;;;;;5006966;28;20056;-55
2023/12/27 06:05:00;;;;;;;16.13;4.50;;;5.50;99.90;;;;;;5003442;28;20076;-52
2023/12/27 06:07:26;;;;;;;9.77;3.78;;;5.50;99.90;;;;;;5001397;28;20077;-55
2023/12/27 06:09:51;;;;;;;11.70;5.03;;;5.50;99.90;;;;;;4998854;28;20031;-52
2023/12/27 06:12:18;;;;;;;26.60;4.70;;;5.50;99.90;;;;;;5003744;28;20499;-53
2023/12/27 06:14:44;;;;;;;14.85;3.92;;;5.50;99.90;;;;;;5009130;28;20041;-51
2023/12/27 06:17:09;;;;;;;15.65;4.25;;;5.60;99.90;;;;;;5000265;28;20030;-51
2023/12/27 06:19:36;;;;;;;14.38;3.92;;;5.60;99.90;;;;;;5000474;28;20025;-52
2023/12/27 06:22:02;;;;;;;21.42;4.35;;;5.60;99.90;;;;;;5011009;28;20113;-52
2023/12/27 06:24:28;;;;;;;6.30;3.10;;;5.60;99.90;;;;;;5001282;28;20526;-52
2023/12/27 06:26:54;;;;;;;17.58;4.28;;;5.70;99.90;;;;;;5005723;28;20156;-52
2023/12/27 06:29:19;;;;;;;14.98;4.85;;;5.70;99.90;;;;;;5004868;28;20506;-54
2023/12/27 06:31:45;;;;;;;12.38;3.10;;;5.70;99.90;;;;;;5004397;28;20057;-50
2023/12/27 06:34:10;;;;;;;12.63;3.42;;;5.80;99.90;;;;;;5006800;28;20041;-53
2023/12/27 06:36:36;;;;;;;18.80;3.70;;;5.80;99.90;;;;;;5001819;28;20037;-52
2023/12/27 06:39:01;;;;;;;12.15;2.78;;;5.80;99.90;;;;;;4997622;28;20014;-53
2023/12/27 06:41:27;;;;;;;9.70;3.08;;;5.80;99.90;;;;;;5026161;23;20091;-52
2023/12/27 06:43:53;;;;;;;7.53;3.10;;;5.90;99.90;;;;;;5032234;28;20602;-48
2023/12/27 06:46:19;;;;;;;12.25;2.85;;;5.90;99.90;;;;;;5028138;28;20033;-48
2023/12/27 06:48:45;;;;;;;10.43;3.83;;;5.90;99.90;;;;;;5026635;28;20149;-52
2023/12/27 06:51:12;;;;;;;9.35;2.60;;;6.00;99.90;;;;;;5026735;28;20380;-48
2023/12/27 06:53:37;;;;;;;7.28;2.83;;;6.00;99.90;;;;;;5007801;28;20369;-49
2023/12/27 06:56:03;;;;;;;5.93;2.72;;;6.10;99.90;;;;;;5004567;28;20029;-47
2023/12/27 06:58:29;;;;;;;12.55;3.53;;;6.10;99.90;;;;;;5007570;28;20502;-49
2023/12/27 07:00:54;;;;;;;12.52;3.17;;;6.10;99.90;;;;;;5008313;28;20030;-52
2023/12/27 07:03:20;;;;;;;12.98;3.30;;;6.20;99.90;;;;;;5007943;28;20061;-48
2023/12/27 07:05:45;;;;;;;9.60;2.58;;;6.20;99.90;;;;;;5010311;28;20036;-48
2023/12/27 07:08:11;;;;;;;9.15;2.22;;;6.20;99.90;;;;;;5008689;28;20065;-47
2023/12/27 07:10:37;;;;;;;12.60;2.40;;;6.20;99.90;;;;;;5010275;28;20030;-49
2023/12/27 07:13:02;;;;;;;12.18;2.95;;;6.20;99.90;;;;;;5011281;28;20046;-52
2023/12/27 07:15:29;;;;;;;19.17;2.67;;;6.20;99.90;;;;;;5009549;28;20075;-48
2023/12/27 07:17:54;;;;;;;11.80;2.47;;;6.20;99.90;;;;;;5008677;28;20103;-54
2023/12/27 07:20:21;;;;;;;9.45;2.20;;;6.20;99.90;;;;;;5007055;28;20026;-52
2023/12/27 07:22:47;;;;;;;11.70;2.67;;;6.20;99.90;;;;;;5007365;28;20108;-50
2023/12/27 07:25:12;;;;;;;8.10;2.42;;;6.20;99.90;;;;;;5006993;28;20057;-48
2023/12/27 07:27:38;;;;;;;10.10;2.45;;;6.30;99.90;;;;;;5013159;28;20066;-50
2023/12/27 07:30:04;;;;;;;9.23;2.40;;;6.30;99.90;;;;;;5008302;28;20411;-48
2023/12/27 07:32:30;;;;;;;7.75;2.70;;;6.30;99.90;;;;;;5007216;28;20045;-48
2023/12/27 07:34:57;;;;;;;9.13;3.03;;;6.40;99.90;;;;;;5013475;28;20037;-49
2023/12/27 07:37:26;;;;;;;11.07;2.42;;;6.40;99.90;;;;;;5012270;28;20059;-56
2023/12/27 07:39:52;;;;;;;9.88;2.40;;;6.40;99.90;;;;;;5012256;28;20507;-53
2023/12/27 07:42:18;;;;;;;8.82;2.40;;;6.50;99.90;;;;;;5014263;28;20103;-53
2023/12/27 07:44:43;;;;;;;13.05;3.38;;;6.50;99.90;;;;;;5012250;28;20402;-51
2023/12/27 07:47:09;;;;;;;14.95;2.00;;;6.50;99.90;;;;;;5014266;28;20033;-48
2023/12/27 07:49:35;;;;;;;7.05;2.17;;;6.50;99.90;;;;;;5012301;28;20037;-52
2023/12/27 07:52:01;;;;;;;14.80;3.95;;;6.50;99.90;;;;;;5012106;28;21292;-49
2023/12/27 07:54:27;;;;;;;8.85;2.25;;;6.60;99.90;;;;;;5011550;28;20041;-52
2023/12/27 07:56:52;;;;;;;8.88;2.72;;;6.60;99.90;;;;;;5013659;28;20527;-51
2023/12/27 07:59:18;;;;;;;8.70;2.88;;;6.70;99.90;;;;;;5013670;28;20053;-49
2023/12/27 08:01:43;;;;;;;10.07;2.78;;;6.70;99.90;;;;;;5010970;28;20124;-52
2023/12/27 08:04:09;;;;;;;11.43;2.50;;;6.70;99.90;;;;;;5007944;28;20408;-54
2023/12/27 08:06:35;;;;;;;8.88;2.33;;;6.80;99.90;;;;;;5010707;28;20041;-47
2023/12/27 08:09:01;;;;;;;9.18;2.47;;;6.80;99.90;;;;;;5018190;28;20040;-57
2023/12/27 08:11:26;;;;;;;7.68;2.20;;;6.80;99.90;;;;;;5016305;28;20041;-47
2023/12/27 08:13:52;;;;;;;7.40;2.13;;;6.80;99.90;;;;;;5015980;28;20531;-49
2023/12/27 08:16:17;;;;;;;6.22;2.40;;;6.90;99.90;;;;;;5017483;28;20041;-55
2023/12/27 08:18:43;;;;;;;5.43;2.03;;;6.90;99.90;;;;;;5016318;28;20026;-48
2023/12/27 08:21:09;;;;;;;8.10;3.00;;;7.00;99.90;;;;;;4995540;28;20484;-51
2023/12/27 08:23:37;;;;;;;13.00;2.42;;;7.00;99.90;;;;;;5014179;28;20295;-57
2023/12/27 08:26:06;;;;;;;11.55;3.05;;;7.10;99.90;;;;;;5012668;28;20053;-50
2023/12/27 08:28:35;;;;;;;5.75;2.30;;;7.10;99.90;;;;;;4997202;28;20066;-55
2023/12/27 08:31:04;;;;;;;8.70;2.20;;;7.10;99.90;;;;;;5017103;28;20551;-50
2023/12/27 08:33:35;;;;;;;8.55;2.75;;;7.20;99.90;;;;;;5018850;28;20018;-50
2023/12/27 08:36:01;;;;;;;10.15;3.25;;;7.20;99.90;;;;;;5016462;28;20029;-50
2023/12/27 08:38:27;;;;;;;5.70;2.05;;;7.20;99.90;;;;;;5015378;28;20029;-51
2023/12/27 08:40:53;;;;;;;7.43;2.25;;;7.30;99.90;;;;;;5016899;28;20034;-51
2023/12/27 08:43:19;;;;;;;9.05;2.47;;;7.30;99.90;;;;;;5014154;28;20029;-50
2023/12/27 08:45:46;;;;;;;7.68;1.73;;;7.30;99.90;;;;;;5016023;28;20025;-54
2023/12/27 08:48:12;;;;;;;5.57;2.10;;;7.40;99.90;;;;;;5016441;28;20378;-53
2023/12/27 08:50:38;;;;;;;4.97;2.15;;;7.40;99.90;;;;;;5017507;28;20025;-47
2023/12/27 08:53:04;;;;;;;10.45;3.40;;;7.40;99.90;;;;;;5014289;28;20798;-49
2023/12/27 08:55:30;;;;;;;10.20;2.40;;;7.50;99.90;;;;;;5016479;28;20096;-52
2023/12/27 08:57:55;;;;;;;2.95;1.85;;;7.50;99.90;;;;;;5018710;28;20037;-50
2023/12/27 09:00:21;;;;;;;10.32;2.95;;;7.50;99.90;;;;;;5015930;28;20105;-52
2023/12/27 09:02:47;;;;;;;5.22;3.00;;;7.50;99.90;;;;;;5019613;28;20445;-47
2023/12/27 09:05:12;;;;;;;7.65;2.83;;;7.40;99.90;;;;;;5013673;28;20022;-48
2023/12/27 09:07:38;;;;;;;17.33;5.63;;;7.50;99.90;;;;;;5017163;28;20037;-54
2023/12/27 09:10:04;;;;;;;8.93;3.83;;;7.50;99.90;;;;;;5016140;28;20034;-53
2023/12/27 09:12:30;;;;;;;18.73;7.70;;;7.60;99.90;;;;;;5017786;28;20106;-48
2023/12/27 09:14:56;;;;;;;14.93;5.38;;;7.60;99.90;;;;;;5017007;28;20034;-53
2023/12/27 09:17:22;;;;;;;8.15;4.55;;;7.70;99.90;;;;;;5015917;28;20033;-48
2023/12/27 09:19:47;;;;;;;13.18;4.85;;;7.70;99.90;;;;;;5015237;28;20151;-55
2023/12/27 09:22:13;;;;;;;10.45;6.07;;;7.80;99.90;;;;;;5012869;28;20124;-48
2023/12/27 09:24:41;;;;;;;12.75;5.68;;;7.90;99.90;;;;;;5012176;28;20041;-54
2023/12/27 09:27:07;;;;;;;21.33;10.80;;;7.90;99.90;;;;;;5015492;28;20065;-53
2023/12/27 09:29:32;;;;;;;17.25;9.10;;;7.90;99.90;;;;;;5016076;28;20057;-52
2023/12/27 09:31:58;;;;;;;9.00;3.78;;;8.00;99.90;;;;;;5017718;28;20026;-49
2023/12/27 09:34:23;;;;;;;7.55;3.30;;;8.00;99.90;;;;;;5014842;28;20049;-51
2023/12/27 09:36:49;;;;;;;6.68;2.85;;;8.10;99.90;;;;;;5014322;28;20399;-50
2023/12/27 09:39:15;;;;;;;6.53;2.50;;;8.10;99.90;;;;;;5016843;28;20026;-53
2023/12/27 09:41:40;;;;;;;3.25;1.83;;;8.20;99.90;;;;;;5015126;28;20025;-49
2023/12/27 09:44:14;;;;;;;3.58;2.13;;;8.20;99.90;;;;;;5015759;28;20054;-50
2023/12/27 09:46:40;;;;;;;8.55;4.45;;;8.30;99.90;;;;;;5016323;28;20040;-51
2023/12/27 09:49:09;;;;;;;7.05;2.72;;;8.40;99.90;;;;;;5016561;28;20029;-53
2023/12/27 09:51:38;;;;;;;9.13;3.00;;;8.50;99.90;;;;;;5014055;28;20038;-49
2023/12/27 09:54:04;;;;;;;13.57;7.53;;;8.50;99.90;;;;;;5014317;28;20025;-53
2023/12/27 09:56:31;;;;;;;10.77;5.00;;;8.50;99.90;;;;;;5015288;28;20096;-51
2023/12/27 09:58:59;;;;;;;12.60;7.32;;;8.50;99.90;;;;;;5016417;28;20548;-48
2023/12/27 10:01:29;;;;;;;9.55;4.35;;;8.50;99.90;;;;;;5014157;28;20088;-47
2023/12/27 10:04:04;;;;;;;4.40;2.50;;;8.50;99.90;;;;;;5016093;28;20034;-48
2023/12/27 10:06:43;;;;;;;5.70;2.88;;;8.50;99.90;;;;;;5011829;28;20080;-50
2023/12/27 10:09:10;;;;;;;5.88;2.75;;;8.50;99.90;;;;;;5012998;28;20514;-49
2023/12/27 10:11:40;;;;;;;4.82;2.28;;;8.50;99.90;;;;;;5014072;28;20714;-48
2023/12/27 10:14:06;;;;;;;4.38;2.22;;;8.50;99.90;;;;;;5015405;28;20072;-49
2023/12/27 10:16:32;;;;;;;4.85;2.70;;;8.50;99.90;;;;;;5018050;28;20100;-52
2023/12/27 10:19:00;;;;;;;10.52;3.30;;;8.50;99.90;;;;;;5010672;28;21278;-58
2023/12/27 10:21:25;;;;;;;3.65;2.00;;;8.50;99.90;;;;;;5015936;28;20071;-48
2023/12/27 10:23:52;;;;;;;5.35;2.88;;;8.60;99.90;;;;;;5014154;28;20068;-51
2023/12/27 10:26:19;;;;;;;4.80;2.72;;;8.60;99.90;;;;;;5014359;28;21235;-48
2023/12/27 10:28:45;;;;;;;7.88;3.95;;;8.50;99.90;;;;;;5014740;28;20050;-51
2023/12/27 10:31:11;;;;;;;11.57;5.38;;;8.50;99.90;;;;;;5014603;28;20522;-53
2023/12/27 10:33:41;;;;;;;7.32;3.55;;;8.50;99.90;;;;;;5013342;28;20117;-50
2023/12/27 10:36:08;;;;;;;8.55;4.35;;;8.50;99.90;;;;;;5013097;28;20045;-50
2023/12/27 10:38:34;;;;;;;4.43;2.17;;;8.50;99.90;;;;;;5015050;28;20064;-49
2023/12/27 10:41:03;;;;;;;5.25;2.20;;;8.50;99.90;;;;;;5013037;28;20497;-58
2023/12/27 10:43:31;;;;;;;8.70;2.92;;;8.50;99.90;;;;;;5014319;28;20029;-51
2023/12/27 10:45:58;;;;;;;7.00;2.13;;;8.50;99.90;;;;;;5011801;28;20109;-48
2023/12/27 10:48:26;;;;;;;3.78;1.90;;;8.60;99.90;;;;;;5015868;28;20030;-48
2023/12/27 10:50:52;;;;;;;2.63;1.60;;;8.60;99.90;;;;;;5015917;28;20034;-47
2023/12/27 10:53:20;;;;;;;2.85;1.88;;;8.60;99.90;;;;;;5011480;28;20399;-50
2023/12/27 10:55:48;;;;;;;2.45;1.50;;;8.70;99.90;;;;;;5015746;28;20028;-47
2023/12/27 10:58:20;;;;;;;6.38;1.58;;;8.80;99.90;;;;;;5015211;28;20069;-50
2023/12/27 11:00:47;;;;;;;3.58;2.25;;;8.70;99.90;;;;;;5016224;28;20021;-51
2023/12/27 11:03:14;;;;;;;4.13;2.25;;;8.80;99.90;;;;;;5012853;28;20022;-52
2023/12/27 11:05:40;;;;;;;9.98;3.05;;;8.80;99.90;;;;;;5013558;28;20053;-51
2023/12/27 11:08:07;;;;;;;6.80;3.25;;;8.80;99.90;;;;;;5012369;28;20228;-48
2023/12/27 11:10:35;;;;;;;3.95;1.63;;;8.80;99.90;;;;;;5010957;28;20041;-51
2023/12/27 11:13:02;;;;;;;6.35;2.30;;;8.80;99.90;;;;;;5015804;28;20029;-53
2023/12/27 11:15:31;;;;;;;4.80;1.33;;;8.80;99.90;;;;;;5014792;28;21195;-52
2023/12/27 11:18:04;;;;;;;5.30;1.48;;;8.80;99.90;;;;;;5014697;28;20043;-52
2023/12/27 11:20:31;;;;;;;3.15;1.80;;;8.90;99.90;;;;;;5014290;28;20022;-52
2023/12/27 11:22:57;;;;;;;2.38;1.30;;;8.90;99.90;;;;;;5011001;28;20551;-55
2023/12/27 11:25:23;;;;;;;3.10;1.73;;;9.10;99.90;;;;;;5012335;28;20021;-57
2023/12/27 11:27:48;;;;;;;9.43;5.18;;;9.30;99.90;;;;;;5014980;28;20057;-49
2023/12/27 11:30:14;;;;;;;3.67;2.50;;;9.40;99.90;;;;;;5011437;28;20543;-47
2023/12/27 11:32:41;;;;;;;3.35;1.77;;;9.50;99.90;;;;;;5014129;28;20471;-48
2023/12/27 11:35:22;;;;;;;3.60;1.52;;;9.70;99.90;;;;;;5011704;28;20059;-52
2023/12/27 11:37:49;;;;;;;2.38;1.55;;;9.80;99.90;;;;;;5014558;28;20117;-48
2023/12/27 11:40:35;;;;;;;2.72;1.40;;;9.90;99.90;;;;;;5013818;28;20018;-47
2023/12/27 11:43:03;;;;;;;3.05;1.38;;;10.00;99.90;;;;;;5018040;28;20100;-50
2023/12/27 11:46:01;;;;;;;2.05;1.75;;;10.10;99.90;;;;;;5015719;28;20068;-50
2023/12/27 11:48:31;;;;;;;2.03;1.50;;;10.20;99.90;;;;;;5019422;28;20025;-52
2023/12/27 11:51:00;;;;;;;6.45;1.25;;;10.10;99.90;;;;;;4997977;28;20033;-52
2023/12/27 11:53:27;;;;;;;2.83;1.35;;;10.20;99.90;;;;;;5017265;28;20033;-50
2023/12/27 11:55:53;;;;;;;2.65;1.55;;;10.20;99.90;;;;;;5017084;28;20021;-48
2023/12/27 11:58:39;;;;;;;4.82;1.33;;;10.10;99.90;;;;;;5016404;28;20057;-54
2023/12/27 12:01:21;;;;;;;2.55;1.23;;;10.20;99.90;;;;;;5016372;28;20116;-49
2023/12/27 12:04:12;;;;;;;5.38;1.88;;;10.20;99.90;;;;;;5015394;28;20167;-51
2023/12/27 12:06:56;;;;;;;4.10;2.13;;;10.10;99.90;;;;;;5015531;28;20129;-50
2023/12/27 12:09:38;;;;;;;4.07;2.13;;;10.10;99.90;;;;;;5018147;28;20394;-48
2023/12/27 12:12:17;;;;;;;6.47;1.90;;;10.10;99.90;;;;;;5013139;28;20399;-48
2023/12/27 12:14:44;;;;;;;5.25;2.00;;;10.10;99.90;;;;;;5016061;28;20124;-50
2023/12/27 12:17:09;;;;;;;2.15;1.45;;;10.00;99.90;;;;;;5015620;28;20116;-49
2023/12/27 12:19:36;;;;;;;4.35;2.05;;;10.00;99.90;;;;;;5016315;28;20113;-48
2023/12/27 12:22:02;;;;;;;6.13;2.33;;;10.00;99.90;;;;;;5016512;28;20513;-57
2023/12/27 12:24:28;;;;;;;5.85;1.98;;;9.90;99.90;;;;;;5014191;28;20028;-50
2023/12/27 12:26:56;;;;;;;3.08;1.80;;;9.80;99.90;;;;;;5013164;28;20029;-52
2023/12/27 12:29:25;;;;;;;5.05;1.67;;;9.80;99.90;;;;;;5017103;28;20029;-53
2023/12/27 12:31:51;;;;;;;3.42;1.58;;;9.80;99.90;;;;;;5016402;28;20045;-48
2023/12/27 12:34:17;;;;;;;2.42;1.30;;;9.80;99.90;;;;;;5016708;28;20455;-48
2023/12/27 12:36:43;;;;;;;6.25;1.90;;;9.80;99.90;;;;;;5014693;28;20041;-52
2023/12/27 12:39:09;;;;;;;2.00;1.38;;;9.80;99.90;;;;;;5015979;28;20037;-50
2023/12/27 12:41:47;;;;;;;1.95;1.10;;;9.80;99.90;;;;;;5050869;23;20607;-85
2023/12/27 12:44:44;;;;;;;4.20;1.63;;;9.90;99.90;;;;;;5008507;28;20100;-85
2023/12/27 12:47:10;;;;;;;2.38;1.10;;;9.80;99.90;;;;;;5010804;28;20033;-85
2023/12/27 12:53:39;;;;;;;2.65;1.20;;;9.90;99.90;;;;;;4970887;28;20027;-85
2023/12/27 13:13:11;;;;;;;2.65;1.05;;;10.00;99.90;;;;;;4953302;28;20038;-84
2023/12/27 13:15:37;;;;;;;5.63;2.67;;;10.00;99.90;;;;;;4937173;28;20046;-86